createdAt,value
2018-07-03T00:00:24.215Z,982.55
2018-07-03T00:01:24.163Z,982.53
2018-07-03T00:02:24.111Z,982.56
2018-07-03T00:03:24.061Z,982.59
2018-07-03T00:04:24.011Z,982.56
2018-07-03T00:05:23.959Z,982.54
2018-07-03T00:06:23.906Z,982.51
2018-07-03T00:07:23.856Z,982.54
2018-07-03T00:08:23.803Z,982.52
2018-07-03T00:09:23.756Z,982.52
2018-07-03T00:10:23.699Z,982.57
2018-07-03T00:11:23.648Z,982.55
2018-07-03T00:12:23.596Z,982.61
2018-07-03T00:13:23.542Z,982.60
2018-07-03T00:14:23.490Z,982.58
2018-07-03T00:15:23.440Z,982.59
2018-07-03T00:16:23.388Z,982.59
2018-07-03T00:17:23.334Z,982.58
2018-07-03T00:18:23.282Z,982.61
2018-07-03T00:19:23.237Z,982.62
2018-07-03T00:20:23.178Z,982.61
2018-07-03T00:21:23.129Z,982.61
2018-07-03T00:22:23.074Z,982.64
2018-07-03T00:23:23.023Z,982.66
2018-07-03T00:24:22.969Z,982.62
2018-07-03T00:25:22.917Z,982.61
2018-07-03T00:26:22.865Z,982.60
2018-07-03T00:27:22.814Z,982.62
2018-07-03T00:28:22.761Z,982.60
2018-07-03T00:29:22.707Z,982.64
2018-07-03T00:30:22.659Z,982.64
2018-07-03T00:31:22.605Z,982.63
2018-07-03T00:32:22.553Z,982.60
2018-07-03T00:33:22.500Z,982.64
2018-07-03T00:34:22.450Z,982.59
2018-07-03T00:35:22.395Z,982.60
2018-07-03T00:36:22.344Z,982.58
2018-07-03T00:37:22.291Z,982.61
2018-07-03T00:38:22.241Z,982.58
2018-07-03T00:39:22.189Z,982.58
2018-07-03T00:40:22.136Z,982.51
2018-07-03T00:41:22.083Z,982.55
2018-07-03T00:42:22.030Z,982.57
2018-07-03T00:43:21.979Z,982.59
2018-07-03T00:44:21.931Z,982.56
2018-07-03T00:45:21.874Z,982.59
2018-07-03T00:46:21.823Z,982.64
2018-07-03T00:47:21.771Z,982.62
2018-07-03T00:48:21.723Z,982.61
2018-07-03T00:49:21.670Z,982.67
2018-07-03T00:50:21.614Z,982.69
2018-07-03T00:51:21.560Z,982.68
2018-07-03T00:52:21.511Z,982.69
2018-07-03T00:53:21.456Z,982.70
2018-07-03T00:54:21.403Z,982.71
2018-07-03T00:55:21.352Z,982.72
2018-07-03T00:56:21.300Z,982.73
2018-07-03T00:57:21.245Z,982.73
2018-07-03T00:58:21.196Z,982.71
2018-07-03T00:59:21.143Z,982.69
2018-07-03T01:00:21.091Z,982.71
2018-07-03T01:01:21.038Z,982.71
2018-07-03T01:02:20.985Z,982.67
2018-07-03T01:03:20.931Z,982.64
2018-07-03T01:04:20.878Z,982.63
2018-07-03T01:05:20.830Z,982.55
2018-07-03T01:06:20.777Z,982.56
2018-07-03T01:07:20.724Z,982.55
2018-07-03T01:08:20.671Z,982.55
2018-07-03T01:09:20.617Z,982.56
2018-07-03T01:10:20.565Z,982.57
2018-07-03T01:11:20.514Z,982.62
2018-07-03T01:12:20.460Z,982.53
2018-07-03T01:13:20.409Z,982.54
2018-07-03T01:14:20.357Z,982.58
2018-07-03T01:15:20.305Z,982.52
2018-07-03T01:16:20.252Z,982.50
2018-07-03T01:17:20.200Z,982.49
2018-07-03T01:18:20.147Z,982.48
2018-07-03T01:19:20.094Z,982.50
2018-07-03T01:20:20.043Z,982.53
2018-07-03T01:21:19.989Z,982.50
2018-07-03T01:22:19.937Z,982.50
2018-07-03T01:23:19.887Z,982.50
2018-07-03T01:24:19.833Z,982.48
2018-07-03T01:25:19.780Z,982.46
2018-07-03T01:26:19.730Z,982.44
2018-07-03T01:27:19.676Z,982.50
2018-07-03T01:28:19.623Z,982.45
2018-07-03T01:29:19.570Z,982.48
2018-07-03T01:30:19.520Z,982.54
2018-07-03T01:31:19.467Z,982.54
2018-07-03T01:32:19.414Z,982.50
2018-07-03T01:33:19.360Z,982.59
2018-07-03T01:34:19.310Z,982.56
2018-07-03T01:35:19.258Z,982.60
2018-07-03T01:36:19.206Z,982.63
2018-07-03T01:37:19.152Z,982.64
2018-07-03T01:38:19.099Z,982.64
2018-07-03T01:39:19.047Z,982.61
2018-07-03T01:40:18.996Z,982.63
2018-07-03T01:41:18.941Z,982.64
2018-07-03T01:42:18.889Z,982.64
2018-07-03T01:43:18.835Z,982.62
2018-07-03T01:44:18.784Z,982.60
2018-07-03T01:45:18.736Z,982.64
2018-07-03T01:46:18.677Z,982.62
2018-07-03T01:47:18.627Z,982.56
2018-07-03T01:48:18.573Z,982.66
2018-07-03T01:49:18.522Z,982.61
2018-07-03T01:50:18.469Z,982.66
2018-07-03T01:51:18.416Z,982.66
2018-07-03T01:52:18.362Z,982.66
2018-07-03T01:53:18.309Z,982.68
2018-07-03T01:54:18.257Z,982.69
2018-07-03T01:55:18.206Z,982.64
2018-07-03T01:56:18.153Z,982.66
2018-07-03T01:57:18.103Z,982.62
2018-07-03T01:58:18.049Z,982.65
2018-07-03T01:59:17.993Z,982.63
2018-07-03T02:00:17.942Z,982.61
2018-07-03T02:01:17.889Z,982.62
2018-07-03T02:02:17.840Z,982.60
2018-07-03T02:03:17.788Z,982.60
2018-07-03T02:04:17.733Z,982.66
2018-07-03T02:05:17.681Z,982.70
2018-07-03T02:06:17.630Z,982.63
2018-07-03T02:07:17.576Z,982.65
2018-07-03T02:08:17.523Z,982.68
2018-07-03T02:09:17.469Z,982.69
2018-07-03T02:10:17.416Z,982.65
2018-07-03T02:11:17.365Z,982.68
2018-07-03T02:12:17.311Z,982.66
2018-07-03T02:13:17.260Z,982.68
2018-07-03T02:14:17.206Z,982.61
2018-07-03T02:15:17.156Z,982.62
2018-07-03T02:16:17.102Z,982.64
2018-07-03T02:17:17.049Z,982.65
2018-07-03T02:18:16.995Z,982.70
2018-07-03T02:19:16.943Z,982.70
2018-07-03T02:20:16.891Z,982.74
2018-07-03T02:21:16.837Z,982.72
2018-07-03T02:22:16.785Z,982.72
2018-07-03T02:23:16.733Z,982.65
2018-07-03T02:24:16.681Z,982.68
2018-07-03T02:25:16.633Z,982.73
2018-07-03T02:26:16.574Z,982.67
2018-07-03T02:27:16.521Z,982.68
2018-07-03T02:28:16.470Z,982.64
2018-07-03T02:29:16.417Z,982.66
2018-07-03T02:30:16.367Z,982.64
2018-07-03T02:31:16.321Z,982.64
2018-07-03T02:32:16.265Z,982.65
2018-07-03T02:33:16.204Z,982.64
2018-07-03T02:34:16.151Z,982.66
2018-07-03T02:35:16.098Z,982.62
2018-07-03T02:36:16.051Z,982.61
2018-07-03T02:37:15.994Z,982.63
2018-07-03T02:38:15.943Z,982.65
2018-07-03T02:39:15.922Z,982.62
2018-07-03T02:40:15.834Z,982.59
2018-07-03T02:41:15.782Z,982.62
2018-07-03T02:42:15.729Z,982.67
2018-07-03T02:43:15.676Z,982.67
2018-07-03T02:44:15.623Z,982.67
2018-07-03T02:45:15.569Z,982.71
2018-07-03T02:46:15.516Z,982.69
2018-07-03T02:47:15.466Z,982.68
2018-07-03T02:48:15.412Z,982.66
2018-07-03T02:49:15.359Z,982.71
2018-07-03T02:50:15.307Z,982.72
2018-07-03T02:51:15.251Z,982.73
2018-07-03T02:52:15.200Z,982.73
2018-07-03T02:53:15.149Z,982.72
2018-07-03T02:54:15.099Z,982.77
2018-07-03T02:55:15.046Z,982.78
2018-07-03T02:56:14.990Z,982.79
2018-07-03T02:57:14.939Z,982.76
2018-07-03T02:58:14.881Z,982.79
2018-07-03T02:59:14.831Z,982.80
2018-07-03T03:00:14.779Z,982.83
2018-07-03T03:01:14.726Z,982.84
2018-07-03T03:02:14.671Z,982.86
2018-07-03T03:03:14.617Z,982.89
2018-07-03T03:04:14.566Z,982.96
2018-07-03T03:05:14.511Z,982.95
2018-07-03T03:06:14.461Z,982.93
2018-07-03T03:07:14.408Z,982.90
2018-07-03T03:08:14.419Z,982.90
2018-07-03T03:09:14.304Z,982.91
2018-07-03T03:10:14.246Z,982.91
2018-07-03T03:11:14.194Z,982.88
2018-07-03T03:12:14.142Z,982.89
2018-07-03T03:13:14.089Z,982.92
2018-07-03T03:14:14.034Z,982.91
2018-07-03T03:15:13.982Z,982.94
2018-07-03T03:16:13.934Z,982.97
2018-07-03T03:17:13.875Z,982.95
2018-07-03T03:18:13.825Z,983.01
2018-07-03T03:19:13.769Z,982.98
2018-07-03T03:20:13.718Z,982.98
2018-07-03T03:21:13.663Z,983.00
2018-07-03T03:22:13.612Z,982.97
2018-07-03T03:23:13.558Z,983.00
2018-07-03T03:24:13.505Z,982.98
2018-07-03T03:25:13.452Z,983.01
2018-07-03T03:26:13.401Z,983.05
2018-07-03T03:27:13.345Z,983.05
2018-07-03T03:28:13.293Z,983.07
2018-07-03T03:29:13.240Z,983.07
2018-07-03T03:30:13.188Z,983.06
2018-07-03T03:31:13.133Z,983.08
2018-07-03T03:32:13.079Z,983.07
2018-07-03T03:33:13.026Z,983.05
2018-07-03T03:34:12.975Z,983.12
2018-07-03T03:35:12.923Z,983.11
2018-07-03T03:36:12.875Z,983.07
2018-07-03T03:37:12.814Z,983.09
2018-07-03T03:38:12.762Z,983.11
2018-07-03T03:39:12.708Z,983.13
2018-07-03T03:40:12.654Z,983.12
2018-07-03T03:41:12.600Z,983.12
2018-07-03T03:42:12.549Z,983.13
2018-07-03T03:43:12.495Z,983.13
2018-07-03T03:44:12.443Z,983.13
2018-07-03T03:45:12.387Z,983.14
2018-07-03T03:46:12.335Z,983.11
2018-07-03T03:47:12.285Z,983.15
2018-07-03T03:48:12.230Z,983.12
2018-07-03T03:49:12.176Z,983.15
2018-07-03T03:50:12.123Z,983.12
2018-07-03T03:51:12.071Z,983.18
2018-07-03T03:52:12.016Z,983.18
2018-07-03T03:53:11.963Z,983.21
2018-07-03T03:54:11.909Z,983.27
2018-07-03T03:55:11.859Z,983.25
2018-07-03T03:56:11.803Z,983.30
2018-07-03T03:57:11.750Z,983.26
2018-07-03T03:58:11.697Z,983.31
2018-07-03T03:59:11.643Z,983.32
2018-07-03T04:00:11.593Z,983.32
2018-07-03T04:01:11.538Z,983.30
2018-07-03T04:02:11.488Z,983.31
2018-07-03T04:03:11.435Z,983.27
2018-07-03T04:04:11.380Z,983.30
2018-07-03T04:05:11.327Z,983.30
2018-07-03T04:06:11.272Z,983.28
2018-07-03T04:07:11.220Z,983.35
2018-07-03T04:08:11.169Z,983.30
2018-07-03T04:09:11.114Z,983.37
2018-07-03T04:10:11.061Z,983.39
2018-07-03T04:11:11.006Z,983.33
2018-07-03T04:12:10.956Z,983.33
2018-07-03T04:13:10.899Z,983.29
2018-07-03T04:14:10.847Z,983.30
2018-07-03T04:15:10.794Z,983.30
2018-07-03T04:16:10.741Z,983.32
2018-07-03T04:17:10.687Z,983.31
2018-07-03T04:18:10.635Z,983.27
2018-07-03T04:19:10.581Z,983.31
2018-07-03T04:20:10.534Z,983.31
2018-07-03T04:21:10.476Z,983.27
2018-07-03T04:22:10.424Z,983.26
2018-07-03T04:23:10.368Z,983.29
2018-07-03T04:24:10.316Z,983.31
2018-07-03T04:25:10.263Z,983.38
2018-07-03T04:26:10.208Z,983.35
2018-07-03T04:27:10.163Z,983.33
2018-07-03T04:28:10.108Z,983.35
2018-07-03T04:29:10.048Z,983.34
2018-07-03T04:30:09.997Z,983.29
2018-07-03T04:31:09.943Z,983.35
2018-07-03T04:32:09.897Z,983.41
2018-07-03T04:33:09.836Z,983.37
2018-07-03T04:34:09.842Z,983.40
2018-07-03T04:35:09.730Z,983.39
2018-07-03T04:36:09.676Z,983.37
2018-07-03T04:37:09.626Z,983.39
2018-07-03T04:38:09.571Z,983.41
2018-07-03T04:39:09.520Z,983.42
2018-07-03T04:40:09.464Z,983.37
2018-07-03T04:41:09.412Z,983.35
2018-07-03T04:42:09.357Z,983.32
2018-07-03T04:43:09.309Z,983.34
2018-07-03T04:44:09.252Z,983.33
2018-07-03T04:45:09.201Z,983.32
2018-07-03T04:46:09.144Z,983.35
2018-07-03T04:47:09.092Z,983.37
2018-07-03T04:48:09.041Z,983.38
2018-07-03T04:49:08.985Z,983.41
2018-07-03T04:50:08.933Z,983.36
2018-07-03T04:51:08.880Z,983.39
2018-07-03T04:52:08.827Z,983.37
2018-07-03T04:53:08.773Z,983.40
2018-07-03T04:54:08.724Z,983.37
2018-07-03T04:55:08.672Z,983.41
2018-07-03T04:56:08.613Z,983.37
2018-07-03T04:57:08.563Z,983.36
2018-07-03T04:58:08.508Z,983.33
2018-07-03T04:59:08.455Z,983.29
2018-07-03T05:00:08.402Z,983.29
2018-07-03T05:01:08.348Z,983.31
2018-07-03T05:02:08.342Z,983.34
2018-07-03T05:03:08.244Z,983.35
2018-07-03T05:04:08.191Z,983.33
2018-07-03T05:05:08.145Z,983.31
2018-07-03T05:06:08.085Z,983.29
2018-07-03T05:07:08.863Z,983.27
2018-07-03T05:08:07.981Z,983.28
2018-07-03T05:09:07.929Z,983.28
2018-07-03T05:10:07.890Z,983.26
2018-07-03T05:11:07.826Z,983.25
2018-07-03T05:12:07.771Z,983.31
2018-07-03T05:13:07.718Z,983.26
2018-07-03T05:14:07.664Z,983.25
2018-07-03T05:15:07.613Z,983.32
2018-07-03T05:16:07.561Z,983.31
2018-07-03T05:17:07.507Z,983.34
2018-07-03T05:18:07.457Z,983.31
2018-07-03T05:19:07.403Z,983.37
2018-07-03T05:20:07.352Z,983.36
2018-07-03T05:21:07.304Z,983.40
2018-07-03T05:22:07.249Z,983.40
2018-07-03T05:23:07.194Z,983.39
2018-07-03T05:24:07.143Z,983.39
2018-07-03T05:25:07.090Z,983.35
2018-07-03T05:26:07.038Z,983.37
2018-07-03T05:27:06.987Z,983.35
2018-07-03T05:28:06.936Z,983.38
2018-07-03T05:29:06.885Z,983.35
2018-07-03T05:30:06.836Z,983.36
2018-07-03T05:31:06.781Z,983.37
2018-07-03T05:32:06.729Z,983.41
2018-07-03T05:33:06.675Z,983.38
2018-07-03T05:34:06.624Z,983.40
2018-07-03T05:35:06.573Z,983.44
2018-07-03T05:36:06.526Z,983.34
2018-07-03T05:37:06.469Z,983.41
2018-07-03T05:38:06.416Z,983.37
2018-07-03T05:39:06.372Z,983.37
2018-07-03T05:40:06.317Z,983.36
2018-07-03T05:41:06.264Z,983.36
2018-07-03T05:42:06.216Z,983.33
2018-07-03T05:43:06.162Z,983.32
2018-07-03T05:44:06.118Z,983.32
2018-07-03T05:45:06.058Z,983.34
2018-07-03T05:46:06.007Z,983.32
2018-07-03T05:47:05.955Z,983.30
2018-07-03T05:48:05.906Z,983.33
2018-07-03T05:49:05.853Z,983.32
2018-07-03T05:50:05.806Z,983.30
2018-07-03T05:51:05.752Z,983.35
2018-07-03T05:52:05.701Z,983.37
2018-07-03T05:53:05.649Z,983.37
2018-07-03T05:54:05.599Z,983.39
2018-07-03T05:55:05.549Z,983.35
2018-07-03T05:56:05.499Z,983.30
2018-07-03T05:57:05.446Z,983.34
2018-07-03T05:58:05.396Z,983.31
2018-07-03T05:59:05.424Z,983.32
2018-07-03T06:00:05.529Z,983.30
2018-07-03T06:01:05.244Z,983.31
2018-07-03T06:02:05.194Z,983.32
2018-07-03T06:03:05.142Z,983.32
2018-07-03T06:04:05.093Z,983.32
2018-07-03T06:05:05.041Z,983.33
2018-07-03T06:06:04.995Z,983.35
2018-07-03T06:07:04.941Z,983.36
2018-07-03T06:08:04.891Z,983.33
2018-07-03T06:09:04.905Z,983.37
2018-07-03T06:10:04.789Z,983.36
2018-07-03T06:11:04.743Z,983.41
2018-07-03T06:12:04.691Z,983.42
2018-07-03T06:13:04.638Z,983.46
2018-07-03T06:14:04.592Z,983.41
2018-07-03T06:15:04.544Z,983.45
2018-07-03T06:16:04.532Z,983.45
2018-07-03T06:17:04.439Z,983.38
2018-07-03T06:18:04.416Z,983.40
2018-07-03T06:19:04.338Z,983.41
2018-07-03T06:20:04.292Z,983.46
2018-07-03T06:21:04.238Z,983.49
2018-07-03T06:22:04.187Z,983.49
2018-07-03T06:23:04.138Z,983.51
2018-07-03T06:24:04.090Z,983.52
2018-07-03T06:25:04.039Z,983.50
2018-07-03T06:26:03.990Z,983.52
2018-07-03T06:27:03.941Z,983.49
2018-07-03T06:28:03.893Z,983.52
2018-07-03T06:29:03.865Z,983.55
2018-07-03T06:30:03.790Z,983.49
2018-07-03T06:31:03.743Z,983.49
2018-07-03T06:32:03.693Z,983.47
2018-07-03T06:33:03.641Z,983.51
2018-07-03T06:34:03.592Z,983.51
2018-07-03T06:35:03.543Z,983.49
2018-07-03T06:36:03.493Z,983.47
2018-07-03T06:37:03.446Z,983.49
2018-07-03T06:38:03.402Z,983.49
2018-07-03T06:39:03.345Z,983.52
2018-07-03T06:40:03.302Z,983.51
2018-07-03T06:41:03.249Z,983.48
2018-07-03T06:42:03.197Z,983.48
2018-07-03T06:43:03.147Z,983.48
2018-07-03T06:44:03.100Z,983.47
2018-07-03T06:45:03.110Z,983.47
2018-07-03T06:46:03.003Z,983.44
2018-07-03T06:47:02.952Z,983.47
2018-07-03T06:48:03.012Z,983.46
2018-07-03T06:49:02.854Z,983.49
2018-07-03T06:50:02.953Z,983.51
2018-07-03T06:51:02.757Z,983.51
2018-07-03T06:52:02.712Z,983.53
2018-07-03T06:53:02.658Z,983.50
2018-07-03T06:54:02.609Z,983.51
2018-07-03T06:55:02.565Z,983.54
2018-07-03T06:56:02.512Z,983.52
2018-07-03T06:57:02.465Z,983.52
2018-07-03T06:58:02.416Z,983.51
2018-07-03T06:59:02.368Z,983.48
2018-07-03T07:00:02.325Z,983.49
2018-07-03T07:01:02.268Z,983.51
2018-07-03T07:02:02.221Z,983.50
2018-07-03T07:03:02.175Z,983.46
2018-07-03T07:04:02.125Z,983.43
2018-07-03T07:05:02.076Z,983.47
2018-07-03T07:06:02.036Z,983.45
2018-07-03T07:07:01.983Z,983.44
2018-07-03T07:08:01.932Z,983.43
2018-07-03T07:09:02.037Z,983.41
2018-07-03T07:10:01.835Z,983.43
2018-07-03T07:11:01.789Z,983.44
2018-07-03T07:12:01.739Z,983.42
2018-07-03T07:13:01.690Z,983.37
2018-07-03T07:14:01.642Z,983.40
2018-07-03T07:15:01.654Z,983.35
2018-07-03T07:16:01.549Z,983.34
2018-07-03T07:17:01.499Z,983.29
2018-07-03T07:18:01.451Z,983.28
2018-07-03T07:19:01.405Z,983.30
2018-07-03T07:20:01.356Z,983.27
2018-07-03T07:21:01.310Z,983.29
2018-07-03T07:22:01.262Z,983.30
2018-07-03T07:23:01.215Z,983.28
2018-07-03T07:24:01.167Z,983.31
2018-07-03T07:25:01.120Z,983.28
2018-07-03T07:26:01.071Z,983.23
2018-07-03T07:27:01.026Z,983.27
2018-07-03T07:28:00.994Z,983.24
2018-07-03T07:29:00.929Z,983.23
2018-07-03T07:30:00.882Z,983.27
2018-07-03T07:31:00.835Z,983.27
2018-07-03T07:32:00.788Z,983.20
2018-07-03T07:33:00.743Z,983.26
2018-07-03T07:34:00.692Z,983.29
2018-07-03T07:35:00.647Z,983.25
2018-07-03T07:36:00.626Z,983.17
2018-07-03T07:37:00.552Z,983.18
2018-07-03T07:38:00.518Z,983.21
2018-07-03T07:39:00.461Z,983.17
2018-07-03T07:40:00.413Z,983.18
2018-07-03T07:41:00.365Z,983.20
2018-07-03T07:42:00.317Z,983.25
2018-07-03T07:43:00.271Z,983.23
2018-07-03T07:44:00.225Z,983.24
2018-07-03T07:45:00.181Z,983.24
2018-07-03T07:46:00.131Z,983.25
2018-07-03T07:47:00.091Z,983.25
2018-07-03T07:48:00.046Z,983.25
2018-07-03T07:48:59.990Z,983.22
2018-07-03T07:49:59.944Z,983.19
2018-07-03T07:50:59.900Z,983.18
2018-07-03T07:51:59.852Z,983.20
2018-07-03T07:52:59.807Z,983.25
2018-07-03T07:53:59.762Z,983.20
2018-07-03T07:54:59.745Z,983.20
2018-07-03T07:55:59.667Z,983.23
2018-07-03T07:56:59.621Z,983.22
2018-07-03T07:57:59.576Z,983.22
2018-07-03T07:58:59.535Z,983.22
2018-07-03T07:59:59.484Z,983.26
2018-07-03T08:00:59.440Z,983.26
2018-07-03T08:01:59.392Z,983.28
2018-07-03T08:02:59.348Z,983.30
2018-07-03T08:03:59.301Z,983.31
2018-07-03T08:04:59.254Z,983.35
2018-07-03T08:05:59.210Z,983.30
2018-07-03T08:06:59.163Z,983.35
2018-07-03T08:07:59.121Z,983.35
2018-07-03T08:08:59.074Z,983.35
2018-07-03T08:09:59.031Z,983.35
2018-07-03T08:10:58.980Z,983.34
2018-07-03T08:11:58.936Z,983.31
2018-07-03T08:12:58.889Z,983.30
2018-07-03T08:13:58.846Z,983.28
2018-07-03T08:14:58.802Z,983.30
2018-07-03T08:15:58.757Z,983.33
2018-07-03T08:16:58.711Z,983.35
2018-07-03T08:17:58.666Z,983.39
2018-07-03T08:18:58.619Z,983.33
2018-07-03T08:19:58.576Z,983.34
2018-07-03T08:20:58.528Z,983.43
2018-07-03T08:21:58.484Z,983.39
2018-07-03T08:22:58.438Z,983.43
2018-07-03T08:23:58.394Z,983.44
2018-07-03T08:24:58.349Z,983.43
2018-07-03T08:25:58.305Z,983.36
2018-07-03T08:26:58.259Z,983.43
2018-07-03T08:27:58.218Z,983.35
2018-07-03T08:28:58.170Z,983.32
2018-07-03T08:29:58.126Z,983.34
2018-07-03T08:30:58.082Z,983.29
2018-07-03T08:31:58.036Z,983.25
2018-07-03T08:32:57.991Z,983.29
2018-07-03T08:33:57.960Z,983.27
2018-07-03T08:34:57.904Z,983.28
2018-07-03T08:35:57.858Z,983.20
2018-07-03T08:36:57.814Z,983.25
2018-07-03T08:37:57.771Z,983.22
2018-07-03T08:38:57.726Z,983.23
2018-07-03T08:39:57.685Z,983.20
2018-07-03T08:40:57.639Z,983.17
2018-07-03T08:41:57.596Z,983.23
2018-07-03T08:42:57.629Z,983.22
2018-07-03T08:43:57.509Z,983.19
2018-07-03T08:44:57.462Z,983.15
2018-07-03T08:45:57.417Z,983.16
2018-07-03T08:46:57.373Z,983.16
2018-07-03T08:47:57.330Z,983.18
2018-07-03T08:48:57.286Z,983.16
2018-07-03T08:49:57.242Z,983.18
2018-07-03T08:50:57.199Z,983.15
2018-07-03T08:51:57.171Z,983.17
2018-07-03T08:52:57.111Z,983.18
2018-07-03T08:53:57.074Z,983.20
2018-07-03T08:54:57.028Z,983.22
2018-07-03T08:55:56.982Z,983.18
2018-07-03T08:56:56.940Z,983.21
2018-07-03T08:57:56.896Z,983.21
2018-07-03T08:58:56.853Z,983.26
2018-07-03T08:59:56.805Z,983.23
2018-07-03T09:00:56.783Z,983.17
2018-07-03T09:01:56.718Z,983.27
2018-07-03T09:02:56.677Z,983.23
2018-07-03T09:03:56.633Z,983.28
2018-07-03T09:04:56.589Z,983.21
2018-07-03T09:05:56.546Z,983.21
2018-07-03T09:06:56.558Z,983.20
2018-07-03T09:07:56.459Z,983.24
2018-07-03T09:08:56.419Z,983.23
2018-07-03T09:09:56.375Z,983.22
2018-07-03T09:10:56.331Z,983.22
2018-07-03T09:11:56.288Z,983.29
2018-07-03T09:12:56.246Z,983.32
2018-07-03T09:13:56.202Z,983.26
2018-07-03T09:14:56.159Z,983.27
2018-07-03T09:15:56.116Z,983.31
2018-07-03T09:16:56.083Z,983.31
2018-07-03T09:17:56.062Z,983.25
2018-07-03T09:18:55.985Z,983.29
2018-07-03T09:19:55.944Z,983.28
2018-07-03T09:20:55.900Z,983.32
2018-07-03T09:21:55.857Z,983.29
2018-07-03T09:22:55.815Z,983.29
2018-07-03T09:23:55.772Z,983.30
2018-07-03T09:24:55.731Z,983.26
2018-07-03T09:25:55.686Z,983.33
2018-07-03T09:26:55.645Z,983.26
2018-07-03T09:27:55.601Z,983.25
2018-07-03T09:28:55.557Z,983.27
2018-07-03T09:29:55.519Z,983.23
2018-07-03T09:30:55.472Z,983.27
2018-07-03T09:31:55.435Z,983.26
2018-07-03T09:32:55.387Z,983.28
2018-07-03T09:33:55.343Z,983.32
2018-07-03T09:34:55.302Z,983.28
2018-07-03T09:35:55.263Z,983.27
2018-07-03T09:36:55.220Z,983.25
2018-07-03T09:37:55.175Z,983.25
2018-07-03T09:38:55.131Z,983.25
2018-07-03T09:39:55.090Z,983.26
2018-07-03T09:40:55.050Z,983.19
2018-07-03T09:41:55.003Z,983.25
2018-07-03T09:42:54.963Z,983.17
2018-07-03T09:43:54.920Z,983.16
2018-07-03T09:44:54.876Z,983.15
2018-07-03T09:45:54.835Z,983.20
2018-07-03T09:46:54.794Z,983.17
2018-07-03T09:47:54.750Z,983.21
2018-07-03T09:48:54.734Z,983.18
2018-07-03T09:49:54.667Z,983.22
2018-07-03T09:50:54.622Z,983.22
2018-07-03T09:51:54.583Z,983.15
2018-07-03T09:52:54.538Z,983.20
2018-07-03T09:53:54.494Z,983.28
2018-07-03T09:54:54.467Z,983.26
2018-07-03T09:55:54.409Z,983.30
2018-07-03T09:56:54.368Z,983.24
2018-07-03T09:57:54.324Z,983.25
2018-07-03T09:58:54.286Z,983.26
2018-07-03T09:59:54.239Z,983.26
2018-07-03T10:00:54.200Z,983.28
2018-07-03T10:01:54.156Z,983.29
2018-07-03T10:02:54.110Z,983.27
2018-07-03T10:03:54.069Z,983.25
2018-07-03T10:04:54.029Z,983.32
2018-07-03T10:05:53.989Z,983.26
2018-07-03T10:06:53.949Z,983.23
2018-07-03T10:07:53.901Z,983.26
2018-07-03T10:08:53.855Z,983.31
2018-07-03T10:09:53.812Z,983.30
2018-07-03T10:10:53.770Z,983.28
2018-07-03T10:11:53.729Z,983.26
2018-07-03T10:12:53.701Z,983.35
2018-07-03T10:13:53.648Z,983.33
2018-07-03T10:14:53.600Z,983.32
2018-07-03T10:15:53.559Z,983.39
2018-07-03T10:16:53.514Z,983.34
2018-07-03T10:17:53.476Z,983.35
2018-07-03T10:18:53.488Z,983.38
2018-07-03T10:19:53.387Z,983.37
2018-07-03T10:20:53.344Z,983.38
2018-07-03T10:21:53.303Z,983.39
2018-07-03T10:22:53.262Z,983.41
2018-07-03T10:23:53.217Z,983.42
2018-07-03T10:24:53.178Z,983.37
2018-07-03T10:25:53.136Z,983.45
2018-07-03T10:26:53.092Z,983.45
2018-07-03T10:27:53.050Z,983.46
2018-07-03T10:28:53.007Z,983.50
2018-07-03T10:29:52.965Z,983.43
2018-07-03T10:30:52.924Z,983.45
2018-07-03T10:31:52.882Z,983.39
2018-07-03T10:32:52.840Z,983.44
2018-07-03T10:33:52.798Z,983.43
2018-07-03T10:34:52.758Z,983.37
2018-07-03T10:35:52.720Z,983.43
2018-07-03T10:36:52.672Z,983.41
2018-07-03T10:37:52.631Z,983.41
2018-07-03T10:38:52.593Z,983.42
2018-07-03T10:39:52.549Z,983.43
2018-07-03T10:40:52.507Z,983.42
2018-07-03T10:41:52.463Z,983.43
2018-07-03T10:42:52.423Z,983.41
2018-07-03T10:43:52.383Z,983.39
2018-07-03T10:44:52.338Z,983.39
2018-07-03T10:45:52.299Z,983.35
2018-07-03T10:46:52.258Z,983.34
2018-07-03T10:47:52.214Z,983.35
2018-07-03T10:48:52.225Z,983.38
2018-07-03T10:49:52.133Z,983.35
2018-07-03T10:50:52.090Z,983.31
2018-07-03T10:51:52.047Z,983.30
2018-07-03T10:52:52.006Z,983.29
2018-07-03T10:53:51.965Z,983.24
2018-07-03T10:54:51.924Z,983.23
2018-07-03T10:55:51.883Z,983.30
2018-07-03T10:56:51.840Z,983.29
2018-07-03T10:57:51.800Z,983.31
2018-07-03T10:58:51.759Z,983.25
2018-07-03T10:59:51.719Z,983.30
2018-07-03T11:00:51.676Z,983.23
2018-07-03T11:01:51.635Z,983.21
2018-07-03T11:02:51.594Z,983.22
2018-07-03T11:03:51.558Z,983.22
2018-07-03T11:04:51.509Z,983.21
2018-07-03T11:05:51.470Z,983.17
2018-07-03T11:06:51.428Z,983.16
2018-07-03T11:07:51.389Z,983.16
2018-07-03T11:08:51.345Z,983.13
2018-07-03T11:09:51.308Z,983.13
2018-07-03T11:10:51.263Z,983.06
2018-07-03T11:11:51.222Z,983.09
2018-07-03T11:12:51.183Z,983.08
2018-07-03T11:13:51.207Z,983.01
2018-07-03T11:14:51.100Z,982.98
2018-07-03T11:15:51.064Z,983.00
2018-07-03T11:16:51.017Z,983.04
2018-07-03T11:17:50.978Z,983.06
2018-07-03T11:18:50.937Z,983.09
2018-07-03T11:19:50.981Z,983.07
2018-07-03T11:20:50.854Z,983.07
2018-07-03T11:21:50.815Z,983.07
2018-07-03T11:22:50.775Z,983.11
2018-07-03T11:23:50.731Z,983.05
2018-07-03T11:24:50.693Z,983.00
2018-07-03T11:25:50.651Z,983.07
2018-07-03T11:26:50.608Z,983.01
2018-07-03T11:27:50.569Z,983.01
2018-07-03T11:28:50.552Z,983.05
2018-07-03T11:29:50.486Z,983.06
2018-07-03T11:30:50.443Z,983.01
2018-07-03T11:31:50.403Z,983.02
2018-07-03T11:32:50.364Z,982.98
2018-07-03T11:33:50.321Z,982.96
2018-07-03T11:34:50.281Z,982.98
2018-07-03T11:35:50.244Z,982.97
2018-07-03T11:36:50.199Z,982.91
2018-07-03T11:37:50.175Z,982.87
2018-07-03T11:38:50.117Z,982.92
2018-07-03T11:39:50.077Z,982.88
2018-07-03T11:40:50.037Z,982.91
2018-07-03T11:41:49.994Z,982.99
2018-07-03T11:42:49.953Z,982.96
2018-07-03T11:43:49.915Z,982.91
2018-07-03T11:44:49.911Z,982.89
2018-07-03T11:45:49.831Z,982.98
2018-07-03T11:46:49.799Z,982.96
2018-07-03T11:47:49.750Z,982.94
2018-07-03T11:48:49.708Z,982.82
2018-07-03T11:49:49.668Z,982.80
2018-07-03T11:50:49.628Z,982.85
2018-07-03T11:51:49.589Z,982.84
2018-07-03T11:52:49.545Z,982.84
2018-07-03T11:53:49.507Z,982.81
2018-07-03T11:54:49.466Z,982.80
2018-07-03T11:55:49.425Z,982.81
2018-07-03T11:56:49.389Z,982.82
2018-07-03T11:57:49.343Z,982.83
2018-07-03T11:58:49.307Z,982.78
2018-07-03T11:59:49.268Z,982.75
2018-07-03T12:00:49.222Z,982.70
2018-07-03T12:01:49.185Z,982.73
2018-07-03T12:02:49.141Z,982.72
2018-07-03T12:03:49.108Z,982.75
2018-07-03T12:04:49.059Z,982.70
2018-07-03T12:05:49.021Z,982.69
2018-07-03T12:06:48.983Z,982.71
2018-07-03T12:07:48.943Z,982.68
2018-07-03T12:08:48.899Z,982.68
2018-07-03T12:09:48.861Z,982.65
2018-07-03T12:10:48.818Z,982.65
2018-07-03T12:11:48.776Z,982.66
2018-07-03T12:12:48.739Z,982.65
2018-07-03T12:13:48.698Z,982.60
2018-07-03T12:14:48.654Z,982.65
2018-07-03T12:15:48.617Z,982.59
2018-07-03T12:16:48.573Z,982.52
2018-07-03T12:17:48.533Z,982.60
2018-07-03T12:18:48.493Z,982.54
2018-07-03T12:19:48.463Z,982.54
2018-07-03T12:20:48.413Z,982.57
2018-07-03T12:21:48.375Z,982.55
2018-07-03T12:22:48.333Z,982.55
2018-07-03T12:23:48.293Z,982.55
2018-07-03T12:24:48.249Z,982.56
2018-07-03T12:25:48.211Z,982.54
2018-07-03T12:26:48.170Z,982.60
2018-07-03T12:27:48.130Z,982.55